Terminal Aerodrome Forecast
Issued by NWS Cleveland, OH

Home | Current Version | Previous Version | Graphics & Text | Print | Product List | Glossary Off
Versions: 1 2 3 4 5 6 7 8 9 10 11 12 13 14 15 16 17 18 19 20

000
FTUS41 KCLE 271100
TAFERI
TAF
KERI 271139Z 2712/2812 32005KT 4SM BR BKN006 OVC012
     FM271330 34006KT P6SM SCT005 OVC012
     FM271500 34006KT P6SM BKN025
     FM271700 35008KT P6SM FEW035
     FM280000 36006KT P6SM SCT250=

USA.gov is the U.S. government's official web portal to all federal, state and local government web resources and services.